createdAt,value
2022-10-23T00:00:40.205Z,20.88
2022-10-23T00:03:07.131Z,22.13
2022-10-23T00:05:33.931Z,21.08
2022-10-23T00:08:00.948Z,19.15
2022-10-23T00:10:27.989Z,21.87
2022-10-23T00:12:54.827Z,20.33
2022-10-23T00:15:22.385Z,20.27
2022-10-23T00:17:49.327Z,25.77
2022-10-23T00:20:16.488Z,20.98
2022-10-23T00:22:43.371Z,20.90
2022-10-23T00:25:10.903Z,19.13
2022-10-23T00:27:37.809Z,18.90
2022-10-23T00:30:05.129Z,21.92
2022-10-23T00:34:58.769Z,21.27
2022-10-23T00:37:25.614Z,20.17
2022-10-23T00:39:52.611Z,20.23
2022-10-23T00:42:20.189Z,20.27
2022-10-23T00:44:46.932Z,18.92
2022-10-23T00:47:13.989Z,22.10
2022-10-23T00:49:42.780Z,18.65
2022-10-23T00:52:10.570Z,19.17
2022-10-23T00:54:38.729Z,21.08
2022-10-23T00:57:06.568Z,22.02
2022-10-23T00:59:33.510Z,19.03
2022-10-23T01:02:00.769Z,18.67
2022-10-23T01:04:27.774Z,17.27
2022-10-23T01:06:59.873Z,17.15
2022-10-23T01:09:43.150Z,16.25
2022-10-23T01:12:34.648Z,18.03
2022-10-23T01:15:10.509Z,17.10
2022-10-23T01:17:44.726Z,16.05
2022-10-23T01:20:14.560Z,15.70
2022-10-23T01:22:56.347Z,17.17
2022-10-23T01:25:47.971Z,20.77
2022-10-23T01:28:19.050Z,17.50
2022-10-23T01:30:45.869Z,19.58
2022-10-23T01:33:15.208Z,21.70
2022-10-23T01:35:46.567Z,19.38
2022-10-23T01:38:16.008Z,23.10
2022-10-23T01:41:03.134Z,24.45
2022-10-23T01:43:40.108Z,20.05
2022-10-23T01:46:09.067Z,16.20
2022-10-23T01:48:35.906Z,18.45
2022-10-23T01:51:06.288Z,21.03
2022-10-23T01:53:34.790Z,20.00
2022-10-23T01:56:02.449Z,19.80
2022-10-23T01:58:29.650Z,18.38
2022-10-23T02:00:57.913Z,22.50
2022-10-23T02:03:24.788Z,20.43
2022-10-23T02:05:51.648Z,18.30
2022-10-23T02:08:18.510Z,21.25
2022-10-23T02:10:47.591Z,18.40
2022-10-23T02:13:19.587Z,21.55
2022-10-23T02:15:51.669Z,20.47
2022-10-23T02:18:51.992Z,20.70
2022-10-23T02:21:24.028Z,21.02
2022-10-23T02:23:56.298Z,18.48
2022-10-23T02:26:53.129Z,22.33
2022-10-23T02:29:26.728Z,19.50
2022-10-23T02:31:53.571Z,19.92
2022-10-23T02:34:20.427Z,22.48
2022-10-23T02:36:47.248Z,24.05
2022-10-23T02:39:14.106Z,21.02
2022-10-23T02:41:47.017Z,24.97
2022-10-23T02:44:22.088Z,25.27
2022-10-23T02:47:21.594Z,21.33
2022-10-23T02:50:10.127Z,18.95
2022-10-23T02:53:14.952Z,18.75
2022-10-23T02:56:06.248Z,18.77
2022-10-23T02:58:56.710Z,18.38
2022-10-23T03:01:27.766Z,22.02
2022-10-23T03:03:57.227Z,18.35
2022-10-23T03:06:24.293Z,20.98
2022-10-23T03:09:05.753Z,20.87
2022-10-23T03:11:32.689Z,20.15
2022-10-23T03:13:59.570Z,20.70
2022-10-23T03:16:26.413Z,22.67
2022-10-23T03:18:53.368Z,18.85
2022-10-23T03:21:20.231Z,19.63
2022-10-23T03:23:47.067Z,19.75
2022-10-23T03:26:13.910Z,20.02
2022-10-23T03:28:40.772Z,22.90
2022-10-23T03:31:07.627Z,25.38
2022-10-23T03:33:34.495Z,29.30
2022-10-23T03:36:01.314Z,30.45
2022-10-23T03:38:28.199Z,29.02
2022-10-23T03:40:55.011Z,30.65
2022-10-23T03:43:21.852Z,28.67
2022-10-23T03:45:48.707Z,26.93
2022-10-23T03:48:15.508Z,30.88
2022-10-23T03:50:42.330Z,31.10
2022-10-23T03:53:09.209Z,23.35
2022-10-23T03:55:36.088Z,27.05
2022-10-23T03:58:03.253Z,30.17
2022-10-23T04:00:30.255Z,21.02
2022-10-23T04:02:57.130Z,27.60
2022-10-23T04:05:23.989Z,27.63
2022-10-23T04:07:50.800Z,26.23
2022-10-23T04:10:17.707Z,22.13
2022-10-23T04:12:44.855Z,25.63
2022-10-23T04:15:12.155Z,17.55
2022-10-23T04:17:38.950Z,24.15
2022-10-23T04:20:05.933Z,24.13
2022-10-23T04:22:32.826Z,16.77
2022-10-23T04:24:59.609Z,19.90
2022-10-23T04:27:26.429Z,20.17
2022-10-23T04:29:55.562Z,20.02
2022-10-23T04:32:25.110Z,18.13
2022-10-23T04:34:51.967Z,22.27
2022-10-23T04:37:18.751Z,17.20
2022-10-23T04:39:45.627Z,17.60
2022-10-23T04:42:12.495Z,19.13
2022-10-23T04:44:39.409Z,19.35
2022-10-23T04:47:06.230Z,16.20
2022-10-23T04:49:33.109Z,16.17
2022-10-23T04:51:59.927Z,17.08
2022-10-23T04:54:26.749Z,15.80
2022-10-23T04:56:53.575Z,14.55
2022-10-23T04:59:20.455Z,16.57
2022-10-23T05:01:47.347Z,14.02
2022-10-23T05:04:14.311Z,14.02
2022-10-23T05:06:41.188Z,14.05
2022-10-23T05:09:08.047Z,14.13
2022-10-23T05:11:34.888Z,16.27
2022-10-23T05:14:01.672Z,15.52
2022-10-23T05:16:43.609Z,15.43
2022-10-23T05:19:10.950Z,14.82
2022-10-23T05:21:37.787Z,12.43
2022-10-23T05:24:04.916Z,14.33
2022-10-23T05:26:31.971Z,15.15
2022-10-23T05:28:58.848Z,16.42
2022-10-23T05:31:25.927Z,15.68
2022-10-23T05:33:53.227Z,15.90
2022-10-23T05:36:20.036Z,14.40
2022-10-23T05:38:46.948Z,16.60
2022-10-23T05:41:13.799Z,21.75
2022-10-23T05:43:40.608Z,17.17
2022-10-23T05:46:07.467Z,15.98
2022-10-23T05:48:35.410Z,21.17
2022-10-23T05:51:09.351Z,17.83
2022-10-23T05:53:38.804Z,19.70
2022-10-23T05:56:09.009Z,16.58
2022-10-23T05:58:35.868Z,16.90
2022-10-23T06:01:10.382Z,17.23
2022-10-23T06:03:37.389Z,15.50
2022-10-23T06:06:04.535Z,11.00
2022-10-23T06:08:31.789Z,13.50
2022-10-23T06:10:58.672Z,15.68
2022-10-23T06:13:25.568Z,16.23
2022-10-23T06:15:52.375Z,15.15
2022-10-23T06:18:19.169Z,18.25
2022-10-23T06:20:45.992Z,17.75
2022-10-23T06:23:12.875Z,17.13
2022-10-23T06:25:39.710Z,15.03
2022-10-23T06:28:06.587Z,16.63
2022-10-23T06:30:33.494Z,16.15
2022-10-23T06:33:03.293Z,16.98
2022-10-23T06:35:33.059Z,18.33
2022-10-23T06:37:59.927Z,19.47
2022-10-23T06:40:26.748Z,16.98
2022-10-23T06:42:55.389Z,16.80
2022-10-23T06:45:22.226Z,16.70
2022-10-23T06:47:52.529Z,14.50
2022-10-23T06:50:19.370Z,15.40
2022-10-23T06:52:47.643Z,14.35
2022-10-23T06:55:15.132Z,14.95
2022-10-23T06:57:42.882Z,15.82
2022-10-23T07:00:10.689Z,16.65
2022-10-23T07:02:37.551Z,19.37
2022-10-23T07:05:04.981Z,17.35
2022-10-23T07:07:32.851Z,18.88
2022-10-23T07:09:59.727Z,17.88
2022-10-23T07:12:26.612Z,19.45
2022-10-23T07:14:53.430Z,20.77
2022-10-23T07:17:20.308Z,17.33
2022-10-23T07:19:47.531Z,21.92
2022-10-23T07:22:15.943Z,18.73
2022-10-23T07:24:43.148Z,19.88
2022-10-23T07:27:10.092Z,21.33
2022-10-23T07:29:37.169Z,22.55
2022-10-23T07:32:04.748Z,24.90
2022-10-23T07:34:32.230Z,23.52
2022-10-23T07:36:59.068Z,25.08
2022-10-23T07:39:26.014Z,19.00
2022-10-23T07:41:52.852Z,22.75
2022-10-23T07:44:21.989Z,20.27
2022-10-23T07:46:51.148Z,20.98
2022-10-23T07:49:17.988Z,20.98
2022-10-23T07:51:49.018Z,22.83
2022-10-23T07:54:18.459Z,22.35
2022-10-23T07:56:45.347Z,22.15
2022-10-23T07:59:13.204Z,21.23
2022-10-23T08:01:40.282Z,18.73
2022-10-23T08:04:07.254Z,17.20
2022-10-23T08:06:35.444Z,19.77
2022-10-23T08:09:06.170Z,17.60
2022-10-23T08:11:35.874Z,20.00
2022-10-23T08:14:06.770Z,18.27
2022-10-23T08:16:34.610Z,18.73
2022-10-23T08:19:01.537Z,19.30
2022-10-23T08:21:28.489Z,19.58
2022-10-23T08:23:56.231Z,20.85
2022-10-23T08:26:24.592Z,19.75
2022-10-23T08:28:52.311Z,19.57
2022-10-23T08:31:20.611Z,18.33
2022-10-23T08:33:50.689Z,19.17
2022-10-23T08:36:21.446Z,33.88
2022-10-23T08:38:49.180Z,68.43
2022-10-23T08:41:24.052Z,61.10
2022-10-23T08:43:57.776Z,24.42
2022-10-23T08:46:27.120Z,14.05
2022-10-23T08:49:16.252Z,12.98
2022-10-23T08:51:45.315Z,17.30
2022-10-23T08:54:15.608Z,13.33
2022-10-23T08:56:43.359Z,11.57
2022-10-23T08:59:50.177Z,13.63
2022-10-23T09:02:21.674Z,39.50
2022-10-23T09:04:49.410Z,17.55
2022-10-23T09:07:34.834Z,49.57
2022-10-23T09:10:13.398Z,15.75
2022-10-23T09:12:40.228Z,20.00
2022-10-23T09:15:30.507Z,42.40
2022-10-23T09:18:04.770Z,30.85
2022-10-23T09:20:35.273Z,23.23
2022-10-23T09:23:56.892Z,20.40
2022-10-23T09:26:23.753Z,16.40
2022-10-23T09:28:52.370Z,20.15
2022-10-23T09:31:19.467Z,18.77
2022-10-23T09:33:57.307Z,16.27
2022-10-23T09:36:29.243Z,16.02
2022-10-23T09:38:59.978Z,17.63
2022-10-23T09:41:40.314Z,13.07
2022-10-23T09:44:26.566Z,14.63
2022-10-23T09:46:59.887Z,17.73
2022-10-23T09:49:31.072Z,10.95
2022-10-23T09:52:13.108Z,11.70
2022-10-23T09:54:45.874Z,11.57
2022-10-23T09:57:30.789Z,10.88
2022-10-23T10:00:04.410Z,10.23
2022-10-23T10:02:33.468Z,7.95
2022-10-23T10:05:00.430Z,8.55
2022-10-23T10:07:31.189Z,8.82
2022-10-23T10:10:00.349Z,7.88
2022-10-23T10:12:59.139Z,7.83
2022-10-23T10:15:53.591Z,7.30
2022-10-23T10:18:31.249Z,7.82
2022-10-23T10:21:00.213Z,8.10
2022-10-23T10:24:14.592Z,7.60
2022-10-23T10:26:44.204Z,6.70
2022-10-23T10:29:17.897Z,6.70
2022-10-23T10:31:58.654Z,6.95
2022-10-23T10:34:52.633Z,7.10
2022-10-23T10:37:28.653Z,7.22
2022-10-23T10:40:01.592Z,6.00
2022-10-23T10:42:46.452Z,6.38
2022-10-23T10:45:29.098Z,5.80
2022-10-23T10:48:16.491Z,6.05
2022-10-23T10:50:51.126Z,5.65
2022-10-23T10:53:48.857Z,5.87
2022-10-23T10:56:16.341Z,5.68
2022-10-23T10:58:53.763Z,6.70
2022-10-23T11:01:41.156Z,6.53
2022-10-23T11:04:34.545Z,7.40
2022-10-23T11:07:05.823Z,6.07
2022-10-23T11:09:32.672Z,7.22
2022-10-23T11:11:59.439Z,6.57
2022-10-23T11:14:28.230Z,7.15
2022-10-23T11:17:04.033Z,6.30
2022-10-23T11:19:34.865Z,7.50
2022-10-23T11:22:16.761Z,6.60
2022-10-23T11:25:04.964Z,6.10
2022-10-23T11:27:35.423Z,9.80
2022-10-23T11:30:32.700Z,7.00
2022-10-23T11:33:29.382Z,6.53
2022-10-23T11:36:18.281Z,6.32
2022-10-23T11:38:49.574Z,5.78
2022-10-23T11:41:27.141Z,6.78
2022-10-23T11:44:01.791Z,6.40
2022-10-23T11:46:36.346Z,7.00
2022-10-23T11:49:06.221Z,7.07
2022-10-23T11:51:39.617Z,6.30
2022-10-23T11:54:06.354Z,6.15
2022-10-23T11:56:34.262Z,5.55
2022-10-23T11:59:29.342Z,7.00
2022-10-23T12:01:57.148Z,7.00
2022-10-23T12:04:31.880Z,6.63
2022-10-23T12:07:02.727Z,6.05
2022-10-23T12:09:45.519Z,5.72
2022-10-23T12:12:12.274Z,7.73
2022-10-23T12:14:40.312Z,6.15
2022-10-23T12:17:24.998Z,5.72
2022-10-23T12:19:55.988Z,5.57
2022-10-23T12:22:25.664Z,6.10
2022-10-23T12:25:18.030Z,6.40
2022-10-23T12:27:49.570Z,7.85
2022-10-23T12:30:21.975Z,4.82
2022-10-23T12:33:23.751Z,5.40
2022-10-23T12:36:05.688Z,5.05
2022-10-23T12:38:35.429Z,5.40
2022-10-23T12:41:15.132Z,5.90
2022-10-23T12:43:44.130Z,6.10
2022-10-23T12:46:32.450Z,6.82
2022-10-23T12:49:00.219Z,5.70
2022-10-23T12:51:33.575Z,5.30
2022-10-23T12:54:00.895Z,5.60
2022-10-23T12:56:30.514Z,5.85
2022-10-23T12:59:02.694Z,6.32
2022-10-23T13:01:40.472Z,4.85
2022-10-23T13:04:24.712Z,8.67
2022-10-23T13:06:51.509Z,4.80
2022-10-23T13:09:39.632Z,5.10
2022-10-23T13:12:06.990Z,3.85
2022-10-23T13:14:38.230Z,6.00
2022-10-23T13:17:09.192Z,5.00
2022-10-23T13:19:36.211Z,6.45
2022-10-23T13:22:18.709Z,5.18
2022-10-23T13:24:45.569Z,5.60
2022-10-23T13:27:30.909Z,6.13
2022-10-23T13:29:57.796Z,6.60
2022-10-23T13:32:26.191Z,6.25
2022-10-23T13:35:03.931Z,6.15
2022-10-23T13:37:37.390Z,5.00
2022-10-23T13:40:07.706Z,5.13
2022-10-23T13:42:34.538Z,5.23
2022-10-23T13:45:01.388Z,5.22
2022-10-23T13:47:28.215Z,5.20
2022-10-23T13:49:55.091Z,5.28
2022-10-23T13:52:23.536Z,5.03
2022-10-23T13:54:50.830Z,6.03
2022-10-23T13:57:17.732Z,4.13
2022-10-23T13:59:45.167Z,4.65
2022-10-23T14:02:19.387Z,4.93
2022-10-23T14:04:47.342Z,5.70
2022-10-23T14:07:14.129Z,6.00
2022-10-23T14:09:40.951Z,5.53
2022-10-23T14:12:07.750Z,6.18
2022-10-23T14:14:34.638Z,4.82
2022-10-23T14:17:01.429Z,5.18
2022-10-23T14:19:28.353Z,10.10
2022-10-23T14:21:55.158Z,6.88
2022-10-23T14:24:21.947Z,5.60
2022-10-23T14:26:48.772Z,5.63
2022-10-23T14:29:22.850Z,5.78
2022-10-23T14:31:51.111Z,6.13
2022-10-23T14:34:17.933Z,6.00
2022-10-23T14:36:49.959Z,5.05
2022-10-23T14:39:18.054Z,5.60
2022-10-23T14:41:44.891Z,5.53
2022-10-23T14:44:11.930Z,6.10
2022-10-23T14:46:38.830Z,5.55
2022-10-23T14:49:06.012Z,6.32
2022-10-23T14:51:32.872Z,7.22
2022-10-23T14:54:03.686Z,7.25
2022-10-23T14:56:32.008Z,6.37
2022-10-23T14:59:03.002Z,6.55
2022-10-23T15:01:34.085Z,6.63
2022-10-23T15:04:01.093Z,6.07
2022-10-23T15:06:28.131Z,5.68
2022-10-23T15:08:55.666Z,5.40
2022-10-23T15:11:23.270Z,6.63
2022-10-23T15:13:50.157Z,6.25
2022-10-23T15:16:17.049Z,9.02
2022-10-23T15:18:43.874Z,6.93
2022-10-23T15:21:10.729Z,6.63
2022-10-23T15:23:39.109Z,7.88
2022-10-23T15:26:07.929Z,8.32
2022-10-23T15:28:34.934Z,8.20
2022-10-23T15:31:01.829Z,6.72
2022-10-23T15:33:28.750Z,8.13
2022-10-23T15:35:56.132Z,9.07
2022-10-23T15:38:23.071Z,9.55
2022-10-23T15:40:50.086Z,10.32
2022-10-23T15:43:16.994Z,8.18
2022-10-23T15:45:43.892Z,9.43
2022-10-23T15:48:10.791Z,11.52
2022-10-23T15:50:37.631Z,10.98
2022-10-23T15:53:41.732Z,8.75
2022-10-23T15:56:08.570Z,9.35
2022-10-23T15:58:35.512Z,11.20
2022-10-23T16:01:06.521Z,10.20
2022-10-23T16:03:34.579Z,10.70
2022-10-23T16:06:05.375Z,9.73
2022-10-23T16:08:32.206Z,10.15
2022-10-23T16:10:59.860Z,10.50
2022-10-23T16:13:27.556Z,9.38
2022-10-23T16:15:54.488Z,10.20
2022-10-23T16:18:22.109Z,9.95
2022-10-23T16:20:50.991Z,11.30
2022-10-23T16:23:17.869Z,11.60
2022-10-23T16:25:46.495Z,10.18
2022-10-23T16:28:13.396Z,10.63
2022-10-23T16:30:43.451Z,12.93
2022-10-23T16:33:10.350Z,12.68
2022-10-23T16:35:37.428Z,11.50
2022-10-23T16:38:04.472Z,11.93
2022-10-23T16:40:31.371Z,12.45
2022-10-23T16:42:58.610Z,13.13
2022-10-23T16:45:25.413Z,10.93
2022-10-23T16:47:52.268Z,10.17
2022-10-23T16:50:19.151Z,11.15
2022-10-23T16:52:46.564Z,10.32
2022-10-23T16:55:14.551Z,11.70
2022-10-23T16:57:42.630Z,12.07
2022-10-23T17:00:10.170Z,13.47
2022-10-23T17:02:37.657Z,15.00
2022-10-23T17:05:04.978Z,12.30
2022-10-23T17:07:32.485Z,14.32
2022-10-23T17:09:59.372Z,16.13
2022-10-23T17:12:26.248Z,16.23
2022-10-23T17:14:53.111Z,15.15
2022-10-23T17:17:19.988Z,16.08
2022-10-23T17:19:47.140Z,16.63
2022-10-23T17:22:16.069Z,18.75
2022-10-23T17:24:45.124Z,17.53
2022-10-23T17:27:14.431Z,19.45
2022-10-23T17:29:41.320Z,18.50
2022-10-23T17:32:08.149Z,16.25
2022-10-23T17:34:35.218Z,18.42
2022-10-23T17:37:02.033Z,17.37
2022-10-23T17:39:29.399Z,16.13
2022-10-23T17:41:56.383Z,17.75
2022-10-23T17:44:23.409Z,19.35
2022-10-23T17:46:53.653Z,18.50
2022-10-23T17:49:20.929Z,20.80
2022-10-23T17:51:52.577Z,20.25
2022-10-23T17:54:19.473Z,19.08
2022-10-23T17:56:46.328Z,19.27
2022-10-23T17:59:14.268Z,20.65
2022-10-23T18:01:43.777Z,20.47
2022-10-23T18:04:10.807Z,21.40
2022-10-23T18:06:41.813Z,22.00
2022-10-23T18:09:08.631Z,20.20
2022-10-23T18:11:37.427Z,22.95
2022-10-23T18:14:04.858Z,22.03
2022-10-23T18:16:31.811Z,21.48
2022-10-23T18:19:01.872Z,23.95
2022-10-23T18:21:28.910Z,20.00
2022-10-23T18:23:55.870Z,25.08
2022-10-23T18:26:24.411Z,23.00
2022-10-23T18:28:52.769Z,25.85
2022-10-23T18:31:20.049Z,23.30
2022-10-23T18:33:46.909Z,26.80
2022-10-23T18:36:21.428Z,26.98
2022-10-23T18:38:48.754Z,25.00
2022-10-23T18:41:15.988Z,23.42
2022-10-23T18:43:44.807Z,22.30
2022-10-23T18:46:12.931Z,22.23
2022-10-23T18:48:40.013Z,22.35
2022-10-23T18:51:15.699Z,23.30
2022-10-23T18:53:45.871Z,21.48
2022-10-23T18:56:16.374Z,23.77
2022-10-23T18:58:43.289Z,27.38
2022-10-23T19:01:10.305Z,23.75
2022-10-23T19:03:37.330Z,20.93
2022-10-23T19:06:06.829Z,22.00
2022-10-23T19:08:37.291Z,24.30
2022-10-23T19:11:06.518Z,22.55
2022-10-23T19:13:38.995Z,22.85
2022-10-23T19:16:12.110Z,24.53
2022-10-23T19:18:39.049Z,23.70
2022-10-23T19:21:06.148Z,23.88
2022-10-23T19:23:36.478Z,23.95
2022-10-23T19:26:10.791Z,26.73
2022-10-23T19:28:42.578Z,24.80
2022-10-23T19:31:10.003Z,23.42
2022-10-23T19:33:38.568Z,25.25
2022-10-23T19:36:07.908Z,25.88
2022-10-23T19:38:36.956Z,24.40
2022-10-23T19:41:04.013Z,23.10
2022-10-23T19:43:30.868Z,26.85
2022-10-23T19:46:00.409Z,30.05
2022-10-23T19:48:27.398Z,21.92
2022-10-23T19:50:54.252Z,24.00
2022-10-23T19:53:21.100Z,24.73
2022-10-23T19:55:47.971Z,23.55
2022-10-23T19:58:14.949Z,23.63
2022-10-23T20:00:41.810Z,25.42
2022-10-23T20:03:08.644Z,25.00
2022-10-23T20:05:35.531Z,25.30
2022-10-23T20:08:02.490Z,23.85
2022-10-23T20:10:29.411Z,25.52
2022-10-23T20:13:08.145Z,24.98
2022-10-23T20:15:43.532Z,22.10
2022-10-23T20:18:10.413Z,24.00
2022-10-23T20:20:41.475Z,23.13
2022-10-23T20:23:08.368Z,22.02
2022-10-23T20:25:35.383Z,26.38
2022-10-23T20:28:02.358Z,23.15
2022-10-23T20:30:29.230Z,21.80
2022-10-23T20:32:56.108Z,22.65
2022-10-23T20:35:22.988Z,26.20
2022-10-23T20:37:49.812Z,22.30
2022-10-23T20:40:16.828Z,25.10
2022-10-23T20:42:43.655Z,27.33
2022-10-23T20:45:10.894Z,25.00
2022-10-23T20:47:37.747Z,24.83
2022-10-23T20:50:04.853Z,25.50
2022-10-23T20:55:00.194Z,24.87
2022-10-23T20:57:27.075Z,21.88
2022-10-23T20:59:54.000Z,22.95
2022-10-23T21:02:20.905Z,23.02
2022-10-23T21:04:47.870Z,24.55
2022-10-23T21:07:14.728Z,25.53
2022-10-23T21:09:41.573Z,23.85
2022-10-23T21:12:08.695Z,25.88
2022-10-23T21:14:35.930Z,22.40
2022-10-23T21:17:03.074Z,26.60
2022-10-23T21:19:29.878Z,22.87
2022-10-23T21:21:56.715Z,23.45
2022-10-23T21:24:24.706Z,24.98
2022-10-23T21:26:51.591Z,22.48
2022-10-23T21:29:19.873Z,23.67
2022-10-23T21:31:58.231Z,25.43
2022-10-23T21:34:25.427Z,23.17
2022-10-23T21:37:12.982Z,23.60
2022-10-23T21:39:39.088Z,23.20
2022-10-23T21:42:06.038Z,21.60
2022-10-23T21:44:33.092Z,21.47
2022-10-23T21:46:59.991Z,22.38
2022-10-23T21:49:26.889Z,23.35
2022-10-23T21:51:55.139Z,21.75
2022-10-23T21:54:22.260Z,23.67
2022-10-23T21:56:50.594Z,26.43
2022-10-23T21:59:19.335Z,25.48
2022-10-23T22:01:47.120Z,26.13
2022-10-23T22:04:15.079Z,25.65
2022-10-23T22:06:42.222Z,23.02
2022-10-23T22:09:09.243Z,23.20
2022-10-23T22:11:36.091Z,23.17
2022-10-23T22:14:02.936Z,24.15
2022-10-23T22:16:29.790Z,23.73
2022-10-23T22:18:56.708Z,23.77
2022-10-23T22:21:25.178Z,22.53
2022-10-23T22:23:53.978Z,24.08
2022-10-23T22:26:41.108Z,25.05
2022-10-23T22:29:10.271Z,22.58
2022-10-23T22:31:37.191Z,25.90
2022-10-23T22:34:18.495Z,24.07
2022-10-23T22:36:52.268Z,22.52
2022-10-23T22:39:19.269Z,25.50
2022-10-23T22:41:47.582Z,21.35
2022-10-23T22:44:17.291Z,22.27
2022-10-23T22:46:44.612Z,21.60
2022-10-23T22:49:11.570Z,21.92
2022-10-23T22:51:39.719Z,20.98
2022-10-23T22:54:06.633Z,21.20
2022-10-23T22:56:34.273Z,20.90
2022-10-23T22:59:01.194Z,22.30
2022-10-23T23:01:30.699Z,19.52
2022-10-23T23:04:04.430Z,22.27
2022-10-23T23:06:45.589Z,21.60
2022-10-23T23:09:17.000Z,19.38
2022-10-23T23:11:51.779Z,19.90
2022-10-23T23:14:23.226Z,21.23
2022-10-23T23:16:52.073Z,20.23
2022-10-23T23:19:19.129Z,22.77
2022-10-23T23:21:45.933Z,20.27
2022-10-23T23:24:12.788Z,19.93
2022-10-23T23:26:39.627Z,21.00
2022-10-23T23:29:06.519Z,19.92
2022-10-23T23:31:33.373Z,19.40
2022-10-23T23:34:00.200Z,20.10
2022-10-23T23:36:27.408Z,20.10
2022-10-23T23:38:54.570Z,19.95
2022-10-23T23:41:21.804Z,20.75
2022-10-23T23:43:48.728Z,18.58
2022-10-23T23:46:17.893Z,18.48
2022-10-23T23:48:48.113Z,21.13
2022-10-23T23:51:19.770Z,19.60
2022-10-23T23:53:47.093Z,21.90
2022-10-23T23:56:13.951Z,21.75
2022-10-23T23:58:40.832Z,19.48
